sensor_id;sensor_type;location;lat;lon;timestamp;P1;durP1;ratioP1;P2;durP2;ratioP2
28838;SDS011;15971;50.772;6.100;2022-08-19T00:00:00;11.95;;;8.75;;
28838;SDS011;15971;50.772;6.100;2022-08-19T00:02:29;11.15;;;8.32;;
28838;SDS011;15971;50.772;6.100;2022-08-19T00:04:55;9.90;;;8.90;;
28838;SDS011;15971;50.772;6.100;2022-08-19T00:07:21;11.27;;;8.77;;
28838;SDS011;15971;50.772;6.100;2022-08-19T00:09:46;15.50;;;10.15;;
28838;SDS011;15971;50.772;6.100;2022-08-19T00:12:12;11.88;;;10.18;;
28838;SDS011;15971;50.772;6.100;2022-08-19T00:14:38;12.52;;;10.25;;
28838;SDS011;15971;50.772;6.100;2022-08-19T00:17:05;12.35;;;9.73;;
28838;SDS011;15971;50.772;6.100;2022-08-19T00:19:31;13.35;;;10.43;;
28838;SDS011;15971;50.772;6.100;2022-08-19T00:21:58;12.15;;;10.20;;
28838;SDS011;15971;50.772;6.100;2022-08-19T00:24:24;11.73;;;10.43;;
28838;SDS011;15971;50.772;6.100;2022-08-19T00:26:50;13.07;;;11.65;;
28838;SDS011;15971;50.772;6.100;2022-08-19T00:29:17;15.00;;;11.20;;
28838;SDS011;15971;50.772;6.100;2022-08-19T00:31:45;12.88;;;10.82;;
28838;SDS011;15971;50.772;6.100;2022-08-19T00:34:11;14.57;;;10.38;;
28838;SDS011;15971;50.772;6.100;2022-08-19T00:36:38;12.38;;;10.23;;
28838;SDS011;15971;50.772;6.100;2022-08-19T00:39:04;12.13;;;10.52;;
28838;SDS011;15971;50.772;6.100;2022-08-19T00:41:30;11.85;;;10.40;;
28838;SDS011;15971;50.772;6.100;2022-08-19T00:44:00;12.32;;;10.25;;
28838;SDS011;15971;50.772;6.100;2022-08-19T00:46:32;12.40;;;11.05;;
28838;SDS011;15971;50.772;6.100;2022-08-19T00:49:03;13.50;;;11.23;;
28838;SDS011;15971;50.772;6.100;2022-08-19T00:51:34;13.02;;;11.40;;
28838;SDS011;15971;50.772;6.100;2022-08-19T00:54:00;14.02;;;12.10;;
28838;SDS011;15971;50.772;6.100;2022-08-19T00:56:28;12.95;;;10.98;;
28838;SDS011;15971;50.772;6.100;2022-08-19T00:58:56;12.30;;;10.80;;
28838;SDS011;15971;50.772;6.100;2022-08-19T01:01:24;12.07;;;10.85;;
28838;SDS011;15971;50.772;6.100;2022-08-19T01:03:49;13.98;;;11.40;;
28838;SDS011;15971;50.772;6.100;2022-08-19T01:06:15;13.38;;;11.57;;
28838;SDS011;15971;50.772;6.100;2022-08-19T01:08:41;13.50;;;11.45;;
28838;SDS011;15971;50.772;6.100;2022-08-19T01:11:07;12.70;;;11.38;;
28838;SDS011;15971;50.772;6.100;2022-08-19T01:13:33;12.32;;;10.57;;
28838;SDS011;15971;50.772;6.100;2022-08-19T01:16:01;13.80;;;11.20;;
28838;SDS011;15971;50.772;6.100;2022-08-19T01:18:30;13.77;;;11.80;;
28838;SDS011;15971;50.772;6.100;2022-08-19T01:20:58;16.10;;;12.02;;
28838;SDS011;15971;50.772;6.100;2022-08-19T01:23:31;15.40;;;12.85;;
28838;SDS011;15971;50.772;6.100;2022-08-19T01:26:13;14.93;;;12.00;;
28838;SDS011;15971;50.772;6.100;2022-08-19T01:28:42;14.05;;;12.55;;
28838;SDS011;15971;50.772;6.100;2022-08-19T01:31:11;14.60;;;13.05;;
28838;SDS011;15971;50.772;6.100;2022-08-19T01:33:42;15.90;;;11.70;;
28838;SDS011;15971;50.772;6.100;2022-08-19T01:36:09;15.75;;;12.48;;
28838;SDS011;15971;50.772;6.100;2022-08-19T01:38:39;15.00;;;13.35;;
28838;SDS011;15971;50.772;6.100;2022-08-19T01:41:07;16.77;;;12.25;;
28838;SDS011;15971;50.772;6.100;2022-08-19T01:43:34;14.25;;;12.15;;
28838;SDS011;15971;50.772;6.100;2022-08-19T01:45:59;14.20;;;12.68;;
28838;SDS011;15971;50.772;6.100;2022-08-19T01:48:26;14.70;;;12.77;;
28838;SDS011;15971;50.772;6.100;2022-08-19T01:50:54;17.73;;;12.93;;
28838;SDS011;15971;50.772;6.100;2022-08-19T01:53:20;16.52;;;13.15;;
28838;SDS011;15971;50.772;6.100;2022-08-19T01:55:46;17.27;;;13.70;;
28838;SDS011;15971;50.772;6.100;2022-08-19T01:58:18;16.33;;;12.90;;
28838;SDS011;15971;50.772;6.100;2022-08-19T02:00:47;15.55;;;13.77;;
28838;SDS011;15971;50.772;6.100;2022-08-19T02:03:13;20.02;;;14.95;;
28838;SDS011;15971;50.772;6.100;2022-08-19T02:05:40;17.60;;;13.98;;
28838;SDS011;15971;50.772;6.100;2022-08-19T02:08:06;16.13;;;13.98;;
28838;SDS011;15971;50.772;6.100;2022-08-19T02:10:32;18.63;;;14.10;;
28838;SDS011;15971;50.772;6.100;2022-08-19T02:12:58;17.48;;;14.23;;
28838;SDS011;15971;50.772;6.100;2022-08-19T02:15:24;21.75;;;15.38;;
28838;SDS011;15971;50.772;6.100;2022-08-19T02:17:50;16.38;;;13.98;;
28838;SDS011;15971;50.772;6.100;2022-08-19T02:20:17;16.65;;;14.25;;
28838;SDS011;15971;50.772;6.100;2022-08-19T02:22:43;16.75;;;14.82;;
28838;SDS011;15971;50.772;6.100;2022-08-19T02:25:12;17.13;;;14.52;;
28838;SDS011;15971;50.772;6.100;2022-08-19T02:27:39;17.73;;;14.55;;
28838;SDS011;15971;50.772;6.100;2022-08-19T02:30:07;17.10;;;14.50;;
28838;SDS011;15971;50.772;6.100;2022-08-19T02:32:35;17.13;;;14.48;;
28838;SDS011;15971;50.772;6.100;2022-08-19T02:35:01;19.13;;;15.45;;
28838;SDS011;15971;50.772;6.100;2022-08-19T02:37:27;18.85;;;14.65;;
28838;SDS011;15971;50.772;6.100;2022-08-19T02:40:11;19.10;;;15.18;;
28838;SDS011;15971;50.772;6.100;2022-08-19T02:42:37;20.27;;;17.10;;
28838;SDS011;15971;50.772;6.100;2022-08-19T02:45:03;18.05;;;15.63;;
28838;SDS011;15971;50.772;6.100;2022-08-19T02:47:30;19.55;;;16.33;;
28838;SDS011;15971;50.772;6.100;2022-08-19T02:49:55;21.98;;;16.90;;
28838;SDS011;15971;50.772;6.100;2022-08-19T02:52:21;21.98;;;16.50;;
28838;SDS011;15971;50.772;6.100;2022-08-19T02:54:48;23.75;;;17.20;;
28838;SDS011;15971;50.772;6.100;2022-08-19T02:57:14;20.95;;;16.48;;
28838;SDS011;15971;50.772;6.100;2022-08-19T02:59:40;22.30;;;16.30;;
28838;SDS011;15971;50.772;6.100;2022-08-19T03:02:05;22.50;;;16.63;;
28838;SDS011;15971;50.772;6.100;2022-08-19T03:04:31;22.25;;;17.48;;
28838;SDS011;15971;50.772;6.100;2022-08-19T03:06:56;22.85;;;15.88;;
28838;SDS011;15971;50.772;6.100;2022-08-19T03:09:22;19.70;;;16.23;;
28838;SDS011;15971;50.772;6.100;2022-08-19T03:11:47;22.88;;;17.13;;
28838;SDS011;15971;50.772;6.100;2022-08-19T03:14:13;20.55;;;17.65;;
28838;SDS011;15971;50.772;6.100;2022-08-19T03:16:41;19.88;;;16.98;;
28838;SDS011;15971;50.772;6.100;2022-08-19T03:19:08;24.30;;;18.58;;
28838;SDS011;15971;50.772;6.100;2022-08-19T03:21:34;25.42;;;18.17;;
28838;SDS011;15971;50.772;6.100;2022-08-19T03:24:01;20.73;;;17.63;;
28838;SDS011;15971;50.772;6.100;2022-08-19T03:26:29;21.13;;;16.63;;
28838;SDS011;15971;50.772;6.100;2022-08-19T03:28:55;25.00;;;18.80;;
28838;SDS011;15971;50.772;6.100;2022-08-19T03:31:21;22.20;;;17.70;;
28838;SDS011;15971;50.772;6.100;2022-08-19T03:33:48;23.17;;;18.52;;
28838;SDS011;15971;50.772;6.100;2022-08-19T03:36:16;22.88;;;18.95;;
28838;SDS011;15971;50.772;6.100;2022-08-19T03:38:49;24.85;;;20.15;;
28838;SDS011;15971;50.772;6.100;2022-08-19T03:41:23;23.25;;;18.88;;
28838;SDS011;15971;50.772;6.100;2022-08-19T03:43:52;26.80;;;21.27;;
28838;SDS011;15971;50.772;6.100;2022-08-19T03:46:19;22.77;;;19.23;;
28838;SDS011;15971;50.772;6.100;2022-08-19T03:48:48;24.20;;;19.38;;
28838;SDS011;15971;50.772;6.100;2022-08-19T03:51:27;28.63;;;21.33;;
28838;SDS011;15971;50.772;6.100;2022-08-19T03:53:56;28.08;;;20.13;;
28838;SDS011;15971;50.772;6.100;2022-08-19T03:56:23;23.17;;;19.88;;
28838;SDS011;15971;50.772;6.100;2022-08-19T03:58:53;28.33;;;21.48;;
28838;SDS011;15971;50.772;6.100;2022-08-19T04:01:21;26.95;;;22.23;;
28838;SDS011;15971;50.772;6.100;2022-08-19T04:03:48;25.73;;;20.90;;
28838;SDS011;15971;50.772;6.100;2022-08-19T04:06:26;33.17;;;23.10;;
28838;SDS011;15971;50.772;6.100;2022-08-19T04:08:55;28.88;;;22.42;;
28838;SDS011;15971;50.772;6.100;2022-08-19T04:11:24;35.67;;;24.30;;
28838;SDS011;15971;50.772;6.100;2022-08-19T04:13:51;43.13;;;30.55;;
28838;SDS011;15971;50.772;6.100;2022-08-19T04:16:19;44.50;;;30.98;;
28838;SDS011;15971;50.772;6.100;2022-08-19T04:18:49;54.47;;;36.28;;
28838;SDS011;15971;50.772;6.100;2022-08-19T04:21:16;56.70;;;37.38;;
28838;SDS011;15971;50.772;6.100;2022-08-19T04:23:44;56.10;;;37.40;;
28838;SDS011;15971;50.772;6.100;2022-08-19T04:26:14;60.15;;;39.80;;
28838;SDS011;15971;50.772;6.100;2022-08-19T04:28:41;65.40;;;43.03;;
28838;SDS011;15971;50.772;6.100;2022-08-19T04:31:14;60.92;;;40.20;;
28838;SDS011;15971;50.772;6.100;2022-08-19T04:33:41;60.33;;;39.35;;
28838;SDS011;15971;50.772;6.100;2022-08-19T04:36:06;59.03;;;38.95;;
28838;SDS011;15971;50.772;6.100;2022-08-19T04:38:34;61.42;;;41.78;;
28838;SDS011;15971;50.772;6.100;2022-08-19T04:41:01;65.32;;;41.05;;
28838;SDS011;15971;50.772;6.100;2022-08-19T04:43:46;66.03;;;43.58;;
28838;SDS011;15971;50.772;6.100;2022-08-19T04:46:13;66.72;;;40.35;;
28838;SDS011;15971;50.772;6.100;2022-08-19T04:48:40;69.13;;;44.83;;
28838;SDS011;15971;50.772;6.100;2022-08-19T04:51:06;66.88;;;42.25;;
28838;SDS011;15971;50.772;6.100;2022-08-19T04:53:35;68.25;;;43.67;;
28838;SDS011;15971;50.772;6.100;2022-08-19T04:56:06;65.72;;;42.75;;
28838;SDS011;15971;50.772;6.100;2022-08-19T04:58:36;76.63;;;45.35;;
28838;SDS011;15971;50.772;6.100;2022-08-19T05:01:03;67.90;;;44.53;;
28838;SDS011;15971;50.772;6.100;2022-08-19T05:03:29;67.72;;;40.70;;
28838;SDS011;15971;50.772;6.100;2022-08-19T05:05:59;75.78;;;46.40;;
28838;SDS011;15971;50.772;6.100;2022-08-19T05:08:33;72.32;;;44.60;;
28838;SDS011;15971;50.772;6.100;2022-08-19T05:11:00;76.65;;;44.83;;
28838;SDS011;15971;50.772;6.100;2022-08-19T05:13:26;75.32;;;43.15;;
28838;SDS011;15971;50.772;6.100;2022-08-19T05:15:58;77.03;;;45.85;;
28838;SDS011;15971;50.772;6.100;2022-08-19T05:18:24;78.22;;;44.72;;
28838;SDS011;15971;50.772;6.100;2022-08-19T05:21:09;79.20;;;46.38;;
28838;SDS011;15971;50.772;6.100;2022-08-19T05:23:55;78.78;;;45.15;;
28838;SDS011;15971;50.772;6.100;2022-08-19T05:26:22;72.82;;;45.33;;
28838;SDS011;15971;50.772;6.100;2022-08-19T05:28:49;71.80;;;43.85;;
28838;SDS011;15971;50.772;6.100;2022-08-19T05:31:15;73.45;;;46.45;;
28838;SDS011;15971;50.772;6.100;2022-08-19T05:33:40;69.03;;;42.95;;
28838;SDS011;15971;50.772;6.100;2022-08-19T05:36:06;80.95;;;45.70;;
28838;SDS011;15971;50.772;6.100;2022-08-19T05:38:32;68.38;;;41.58;;
28838;SDS011;15971;50.772;6.100;2022-08-19T05:41:00;70.72;;;44.22;;
28838;SDS011;15971;50.772;6.100;2022-08-19T05:43:31;63.47;;;42.72;;
28838;SDS011;15971;50.772;6.100;2022-08-19T05:45:57;61.13;;;40.97;;
28838;SDS011;15971;50.772;6.100;2022-08-19T05:48:23;67.25;;;42.35;;
28838;SDS011;15971;50.772;6.100;2022-08-19T05:50:48;59.42;;;39.70;;
28838;SDS011;15971;50.772;6.100;2022-08-19T05:53:15;67.57;;;42.47;;
28838;SDS011;15971;50.772;6.100;2022-08-19T05:55:41;59.75;;;38.38;;
28838;SDS011;15971;50.772;6.100;2022-08-19T05:58:07;48.65;;;35.33;;
28838;SDS011;15971;50.772;6.100;2022-08-19T06:00:33;63.72;;;37.97;;
28838;SDS011;15971;50.772;6.100;2022-08-19T06:03:00;58.25;;;38.00;;
28838;SDS011;15971;50.772;6.100;2022-08-19T06:05:28;54.13;;;36.78;;
28838;SDS011;15971;50.772;6.100;2022-08-19T06:07:57;48.45;;;35.05;;
28838;SDS011;15971;50.772;6.100;2022-08-19T06:10:24;48.35;;;31.65;;
28838;SDS011;15971;50.772;6.100;2022-08-19T06:12:49;53.38;;;34.63;;
28838;SDS011;15971;50.772;6.100;2022-08-19T06:15:15;48.45;;;31.42;;
28838;SDS011;15971;50.772;6.100;2022-08-19T06:17:41;51.20;;;31.20;;
28838;SDS011;15971;50.772;6.100;2022-08-19T06:20:10;50.03;;;33.10;;
28838;SDS011;15971;50.772;6.100;2022-08-19T06:22:42;54.13;;;35.60;;
28838;SDS011;15971;50.772;6.100;2022-08-19T06:25:11;53.50;;;34.72;;
28838;SDS011;15971;50.772;6.100;2022-08-19T06:27:39;45.97;;;32.90;;
28838;SDS011;15971;50.772;6.100;2022-08-19T06:30:05;48.20;;;30.60;;
28838;SDS011;15971;50.772;6.100;2022-08-19T06:32:31;45.80;;;31.45;;
28838;SDS011;15971;50.772;6.100;2022-08-19T06:34:57;45.95;;;32.08;;
28838;SDS011;15971;50.772;6.100;2022-08-19T06:37:23;46.15;;;31.40;;
28838;SDS011;15971;50.772;6.100;2022-08-19T06:39:49;48.38;;;29.73;;
28838;SDS011;15971;50.772;6.100;2022-08-19T06:42:15;45.70;;;31.85;;
28838;SDS011;15971;50.772;6.100;2022-08-19T06:44:43;36.70;;;27.70;;
28838;SDS011;15971;50.772;6.100;2022-08-19T06:47:12;41.55;;;28.88;;
28838;SDS011;15971;50.772;6.100;2022-08-19T06:49:39;49.47;;;29.02;;
28838;SDS011;15971;50.772;6.100;2022-08-19T06:52:05;64.45;;;42.80;;
28838;SDS011;15971;50.772;6.100;2022-08-19T06:54:31;42.70;;;28.55;;
28838;SDS011;15971;50.772;6.100;2022-08-19T06:56:58;42.60;;;28.73;;
28838;SDS011;15971;50.772;6.100;2022-08-19T06:59:27;40.33;;;26.80;;
28838;SDS011;15971;50.772;6.100;2022-08-19T07:01:55;37.72;;;24.60;;
28838;SDS011;15971;50.772;6.100;2022-08-19T07:04:22;33.95;;;24.33;;
28838;SDS011;15971;50.772;6.100;2022-08-19T07:06:56;32.47;;;22.02;;
28838;SDS011;15971;50.772;6.100;2022-08-19T07:09:33;35.88;;;22.63;;
28838;SDS011;15971;50.772;6.100;2022-08-19T07:12:02;34.53;;;23.90;;
28838;SDS011;15971;50.772;6.100;2022-08-19T07:14:29;34.10;;;22.80;;
28838;SDS011;15971;50.772;6.100;2022-08-19T07:16:56;44.40;;;25.75;;
28838;SDS011;15971;50.772;6.100;2022-08-19T07:19:22;46.30;;;26.85;;
28838;SDS011;15971;50.772;6.100;2022-08-19T07:21:52;41.88;;;26.38;;
28838;SDS011;15971;50.772;6.100;2022-08-19T07:24:19;47.03;;;28.08;;
28838;SDS011;15971;50.772;6.100;2022-08-19T07:26:49;43.97;;;27.80;;
28838;SDS011;15971;50.772;6.100;2022-08-19T07:29:16;62.05;;;40.53;;
28838;SDS011;15971;50.772;6.100;2022-08-19T07:31:42;50.85;;;31.38;;
28838;SDS011;15971;50.772;6.100;2022-08-19T07:34:09;51.92;;;33.00;;
28838;SDS011;15971;50.772;6.100;2022-08-19T07:36:37;52.75;;;33.65;;
28838;SDS011;15971;50.772;6.100;2022-08-19T07:39:13;44.33;;;32.00;;
28838;SDS011;15971;50.772;6.100;2022-08-19T07:41:41;53.63;;;33.83;;
28838;SDS011;15971;50.772;6.100;2022-08-19T07:44:08;56.83;;;35.75;;
28838;SDS011;15971;50.772;6.100;2022-08-19T07:46:34;56.60;;;36.28;;
28838;SDS011;15971;50.772;6.100;2022-08-19T07:49:03;56.63;;;35.97;;
28838;SDS011;15971;50.772;6.100;2022-08-19T07:51:29;58.75;;;39.65;;
28838;SDS011;15971;50.772;6.100;2022-08-19T07:53:55;51.78;;;33.83;;
28838;SDS011;15971;50.772;6.100;2022-08-19T07:56:21;58.13;;;34.25;;
28838;SDS011;15971;50.772;6.100;2022-08-19T07:58:48;48.55;;;32.63;;
28838;SDS011;15971;50.772;6.100;2022-08-19T08:01:16;46.38;;;31.05;;
28838;SDS011;15971;50.772;6.100;2022-08-19T08:03:44;45.33;;;31.08;;
28838;SDS011;15971;50.772;6.100;2022-08-19T08:06:39;46.42;;;31.05;;
28838;SDS011;15971;50.772;6.100;2022-08-19T08:09:33;40.58;;;25.35;;
28838;SDS011;15971;50.772;6.100;2022-08-19T08:12:05;42.63;;;27.30;;
28838;SDS011;15971;50.772;6.100;2022-08-19T08:14:44;46.38;;;28.67;;
28838;SDS011;15971;50.772;6.100;2022-08-19T08:17:12;40.33;;;27.58;;
28838;SDS011;15971;50.772;6.100;2022-08-19T08:19:44;42.55;;;26.73;;
28838;SDS011;15971;50.772;6.100;2022-08-19T08:22:11;39.90;;;26.90;;
28838;SDS011;15971;50.772;6.100;2022-08-19T08:25:06;39.40;;;28.50;;
28838;SDS011;15971;50.772;6.100;2022-08-19T08:27:38;38.92;;;25.85;;
28838;SDS011;15971;50.772;6.100;2022-08-19T08:30:06;36.55;;;25.52;;
28838;SDS011;15971;50.772;6.100;2022-08-19T08:32:34;44.40;;;30.35;;
28838;SDS011;15971;50.772;6.100;2022-08-19T08:35:04;38.13;;;27.30;;
28838;SDS011;15971;50.772;6.100;2022-08-19T08:37:31;39.10;;;27.40;;
28838;SDS011;15971;50.772;6.100;2022-08-19T08:39:57;39.05;;;27.85;;
28838;SDS011;15971;50.772;6.100;2022-08-19T08:42:24;49.33;;;33.03;;
28838;SDS011;15971;50.772;6.100;2022-08-19T08:44:58;43.80;;;31.25;;
28838;SDS011;15971;50.772;6.100;2022-08-19T08:47:39;43.35;;;30.40;;
28838;SDS011;15971;50.772;6.100;2022-08-19T08:50:21;44.08;;;32.25;;
28838;SDS011;15971;50.772;6.100;2022-08-19T08:52:55;41.90;;;30.55;;
28838;SDS011;15971;50.772;6.100;2022-08-19T08:55:23;44.47;;;31.65;;
28838;SDS011;15971;50.772;6.100;2022-08-19T08:58:03;44.60;;;30.88;;
28838;SDS011;15971;50.772;6.100;2022-08-19T09:03:02;50.75;;;34.03;;
28838;SDS011;15971;50.772;6.100;2022-08-19T09:11:03;47.35;;;33.47;;
28838;SDS011;15971;50.772;6.100;2022-08-19T09:13:42;43.60;;;31.85;;
28838;SDS011;15971;50.772;6.100;2022-08-19T09:16:18;49.95;;;32.13;;
28838;SDS011;15971;50.772;6.100;2022-08-19T09:18:53;37.58;;;27.55;;
28838;SDS011;15971;50.772;6.100;2022-08-19T09:21:22;46.63;;;31.77;;
28838;SDS011;15971;50.772;6.100;2022-08-19T09:23:50;43.63;;;29.65;;
28838;SDS011;15971;50.772;6.100;2022-08-19T09:26:18;44.13;;;29.85;;
28838;SDS011;15971;50.772;6.100;2022-08-19T09:28:46;39.70;;;28.20;;
28838;SDS011;15971;50.772;6.100;2022-08-19T09:31:15;50.28;;;31.48;;
28838;SDS011;15971;50.772;6.100;2022-08-19T09:33:43;42.58;;;29.73;;
28838;SDS011;15971;50.772;6.100;2022-08-19T09:36:10;40.30;;;27.23;;
28838;SDS011;15971;50.772;6.100;2022-08-19T09:38:38;41.28;;;24.55;;
28838;SDS011;15971;50.772;6.100;2022-08-19T09:41:08;36.80;;;24.20;;
28838;SDS011;15971;50.772;6.100;2022-08-19T09:43:38;42.47;;;26.20;;
28838;SDS011;15971;50.772;6.100;2022-08-19T09:46:05;41.33;;;26.42;;
28838;SDS011;15971;50.772;6.100;2022-08-19T09:48:34;39.30;;;25.02;;
28838;SDS011;15971;50.772;6.100;2022-08-19T09:51:08;37.05;;;25.10;;
28838;SDS011;15971;50.772;6.100;2022-08-19T09:56:02;35.47;;;24.30;;
28838;SDS011;15971;50.772;6.100;2022-08-19T09:58:30;33.05;;;23.23;;
28838;SDS011;15971;50.772;6.100;2022-08-19T10:00:57;36.20;;;23.58;;
28838;SDS011;15971;50.772;6.100;2022-08-19T10:03:24;33.60;;;22.73;;
28838;SDS011;15971;50.772;6.100;2022-08-19T10:05:50;43.28;;;25.83;;
28838;SDS011;15971;50.772;6.100;2022-08-19T10:08:17;37.45;;;23.63;;
28838;SDS011;15971;50.772;6.100;2022-08-19T10:10:48;31.63;;;22.83;;
28838;SDS011;15971;50.772;6.100;2022-08-19T10:13:16;36.17;;;25.10;;
28838;SDS011;15971;50.772;6.100;2022-08-19T10:15:43;37.25;;;24.83;;
28838;SDS011;15971;50.772;6.100;2022-08-19T10:18:09;35.03;;;23.60;;
28838;SDS011;15971;50.772;6.100;2022-08-19T10:20:36;31.05;;;22.67;;
28838;SDS011;15971;50.772;6.100;2022-08-19T10:23:02;34.97;;;23.80;;
28838;SDS011;15971;50.772;6.100;2022-08-19T10:25:28;35.03;;;23.15;;
28838;SDS011;15971;50.772;6.100;2022-08-19T10:27:53;30.38;;;22.75;;
28838;SDS011;15971;50.772;6.100;2022-08-19T10:30:20;33.35;;;21.55;;
28838;SDS011;15971;50.772;6.100;2022-08-19T10:32:46;27.05;;;19.30;;
28838;SDS011;15971;50.772;6.100;2022-08-19T10:35:12;30.40;;;19.38;;
28838;SDS011;15971;50.772;6.100;2022-08-19T10:37:39;33.30;;;18.92;;
28838;SDS011;15971;50.772;6.100;2022-08-19T10:40:06;30.83;;;20.90;;
28838;SDS011;15971;50.772;6.100;2022-08-19T10:42:33;31.85;;;23.40;;
28838;SDS011;15971;50.772;6.100;2022-08-19T10:45:00;33.22;;;22.35;;
28838;SDS011;15971;50.772;6.100;2022-08-19T10:47:26;28.75;;;19.13;;
28838;SDS011;15971;50.772;6.100;2022-08-19T10:49:52;27.67;;;19.40;;
28838;SDS011;15971;50.772;6.100;2022-08-19T10:52:38;27.13;;;18.65;;
28838;SDS011;15971;50.772;6.100;2022-08-19T10:55:05;32.92;;;17.70;;
28838;SDS011;15971;50.772;6.100;2022-08-19T10:57:50;23.58;;;16.52;;
28838;SDS011;15971;50.772;6.100;2022-08-19T11:00:17;32.05;;;20.80;;
28838;SDS011;15971;50.772;6.100;2022-08-19T11:02:44;31.08;;;20.38;;
28838;SDS011;15971;50.772;6.100;2022-08-19T11:05:11;28.95;;;19.00;;
28838;SDS011;15971;50.772;6.100;2022-08-19T11:07:38;34.22;;;19.65;;
28838;SDS011;15971;50.772;6.100;2022-08-19T11:10:04;30.58;;;20.58;;
28838;SDS011;15971;50.772;6.100;2022-08-19T11:12:30;30.30;;;16.90;;
28838;SDS011;15971;50.772;6.100;2022-08-19T11:14:57;29.00;;;18.45;;
28838;SDS011;15971;50.772;6.100;2022-08-19T11:17:23;25.27;;;18.05;;
28838;SDS011;15971;50.772;6.100;2022-08-19T11:19:49;31.25;;;20.10;;
28838;SDS011;15971;50.772;6.100;2022-08-19T11:22:15;31.20;;;21.05;;
28838;SDS011;15971;50.772;6.100;2022-08-19T11:24:42;29.48;;;21.50;;
28838;SDS011;15971;50.772;6.100;2022-08-19T11:27:08;29.45;;;20.25;;
28838;SDS011;15971;50.772;6.100;2022-08-19T11:29:37;28.48;;;20.08;;
28838;SDS011;15971;50.772;6.100;2022-08-19T11:32:04;29.15;;;20.73;;
28838;SDS011;15971;50.772;6.100;2022-08-19T11:34:33;30.50;;;21.45;;
28838;SDS011;15971;50.772;6.100;2022-08-19T11:37:00;37.95;;;20.92;;
28838;SDS011;15971;50.772;6.100;2022-08-19T11:39:29;29.38;;;20.52;;
28838;SDS011;15971;50.772;6.100;2022-08-19T11:41:56;30.48;;;20.65;;
28838;SDS011;15971;50.772;6.100;2022-08-19T11:44:23;35.13;;;23.38;;
28838;SDS011;15971;50.772;6.100;2022-08-19T11:46:50;32.75;;;21.58;;
28838;SDS011;15971;50.772;6.100;2022-08-19T11:49:17;35.50;;;21.05;;
28838;SDS011;15971;50.772;6.100;2022-08-19T11:51:44;33.65;;;20.42;;
28838;SDS011;15971;50.772;6.100;2022-08-19T11:54:11;33.95;;;19.13;;
28838;SDS011;15971;50.772;6.100;2022-08-19T11:56:38;27.50;;;17.67;;
28838;SDS011;15971;50.772;6.100;2022-08-19T11:59:05;26.23;;;18.65;;
28838;SDS011;15971;50.772;6.100;2022-08-19T12:01:32;28.50;;;18.95;;
28838;SDS011;15971;50.772;6.100;2022-08-19T12:03:58;25.88;;;16.25;;
28838;SDS011;15971;50.772;6.100;2022-08-19T12:06:25;25.70;;;18.02;;
28838;SDS011;15971;50.772;6.100;2022-08-19T12:08:54;23.17;;;15.30;;
28838;SDS011;15971;50.772;6.100;2022-08-19T12:11:24;18.77;;;12.05;;
28838;SDS011;15971;50.772;6.100;2022-08-19T12:13:50;17.52;;;11.32;;
28838;SDS011;15971;50.772;6.100;2022-08-19T12:16:18;17.52;;;10.63;;
28838;SDS011;15971;50.772;6.100;2022-08-19T12:18:47;15.27;;;10.07;;
28838;SDS011;15971;50.772;6.100;2022-08-19T12:21:17;19.23;;;9.10;;
28838;SDS011;15971;50.772;6.100;2022-08-19T12:23:46;15.63;;;8.50;;
28838;SDS011;15971;50.772;6.100;2022-08-19T12:26:13;12.85;;;8.68;;
28838;SDS011;15971;50.772;6.100;2022-08-19T12:28:39;15.07;;;8.40;;
28838;SDS011;15971;50.772;6.100;2022-08-19T12:31:06;11.85;;;8.20;;
28838;SDS011;15971;50.772;6.100;2022-08-19T12:33:33;15.15;;;8.13;;
28838;SDS011;15971;50.772;6.100;2022-08-19T12:36:03;11.35;;;6.82;;
28838;SDS011;15971;50.772;6.100;2022-08-19T12:38:31;8.13;;;5.75;;
28838;SDS011;15971;50.772;6.100;2022-08-19T12:40:57;8.70;;;5.70;;
28838;SDS011;15971;50.772;6.100;2022-08-19T12:43:23;7.55;;;4.93;;
28838;SDS011;15971;50.772;6.100;2022-08-19T12:45:49;7.57;;;4.85;;
28838;SDS011;15971;50.772;6.100;2022-08-19T12:48:15;9.20;;;4.60;;
28838;SDS011;15971;50.772;6.100;2022-08-19T12:50:43;12.02;;;5.03;;
28838;SDS011;15971;50.772;6.100;2022-08-19T12:53:12;7.47;;;4.10;;
28838;SDS011;15971;50.772;6.100;2022-08-19T12:55:39;7.68;;;4.45;;
28838;SDS011;15971;50.772;6.100;2022-08-19T12:58:05;7.80;;;3.85;;
28838;SDS011;15971;50.772;6.100;2022-08-19T13:00:31;7.70;;;3.72;;
28838;SDS011;15971;50.772;6.100;2022-08-19T13:02:57;8.73;;;4.05;;
28838;SDS011;15971;50.772;6.100;2022-08-19T13:05:26;9.82;;;4.80;;
28838;SDS011;15971;50.772;6.100;2022-08-19T13:07:54;12.35;;;4.20;;
28838;SDS011;15971;50.772;6.100;2022-08-19T13:10:21;7.50;;;4.30;;
28838;SDS011;15971;50.772;6.100;2022-08-19T13:12:50;9.43;;;4.72;;
28838;SDS011;15971;50.772;6.100;2022-08-19T13:15:17;4.32;;;3.20;;
28838;SDS011;15971;50.772;6.100;2022-08-19T13:17:45;13.07;;;3.63;;
28838;SDS011;15971;50.772;6.100;2022-08-19T13:20:16;4.35;;;2.72;;
28838;SDS011;15971;50.772;6.100;2022-08-19T13:22:44;6.57;;;3.40;;
28838;SDS011;15971;50.772;6.100;2022-08-19T13:25:11;10.10;;;3.55;;
28838;SDS011;15971;50.772;6.100;2022-08-19T13:27:37;4.68;;;2.92;;
28838;SDS011;15971;50.772;6.100;2022-08-19T13:30:04;4.85;;;2.90;;
28838;SDS011;15971;50.772;6.100;2022-08-19T13:32:49;5.30;;;3.15;;
28838;SDS011;15971;50.772;6.100;2022-08-19T13:35:33;3.80;;;2.80;;
28838;SDS011;15971;50.772;6.100;2022-08-19T13:37:58;5.10;;;2.25;;
28838;SDS011;15971;50.772;6.100;2022-08-19T13:40:25;5.93;;;2.30;;
28838;SDS011;15971;50.772;6.100;2022-08-19T13:42:52;3.88;;;1.90;;
28838;SDS011;15971;50.772;6.100;2022-08-19T13:45:20;2.80;;;1.90;;
28838;SDS011;15971;50.772;6.100;2022-08-19T13:47:49;4.07;;;2.03;;
28838;SDS011;15971;50.772;6.100;2022-08-19T13:50:19;4.85;;;2.67;;
28838;SDS011;15971;50.772;6.100;2022-08-19T13:52:47;32.58;;;15.30;;
28838;SDS011;15971;50.772;6.100;2022-08-19T13:55:14;8.93;;;4.35;;
28838;SDS011;15971;50.772;6.100;2022-08-19T13:57:40;4.75;;;2.70;;
28838;SDS011;15971;50.772;6.100;2022-08-19T14:00:10;5.75;;;3.08;;
28838;SDS011;15971;50.772;6.100;2022-08-19T14:02:39;3.72;;;2.30;;
28838;SDS011;15971;50.772;6.100;2022-08-19T14:05:06;116.50;;;48.42;;
28838;SDS011;15971;50.772;6.100;2022-08-19T14:07:34;19.52;;;8.88;;
28838;SDS011;15971;50.772;6.100;2022-08-19T14:10:00;6.13;;;2.72;;
28838;SDS011;15971;50.772;6.100;2022-08-19T14:12:27;5.68;;;2.13;;
28838;SDS011;15971;50.772;6.100;2022-08-19T14:14:53;8.35;;;2.28;;
28838;SDS011;15971;50.772;6.100;2022-08-19T14:17:18;4.43;;;1.90;;
28838;SDS011;15971;50.772;6.100;2022-08-19T14:19:44;7.03;;;2.55;;
28838;SDS011;15971;50.772;6.100;2022-08-19T14:22:10;7.88;;;3.00;;
28838;SDS011;15971;50.772;6.100;2022-08-19T14:24:38;4.80;;;2.00;;
28838;SDS011;15971;50.772;6.100;2022-08-19T14:27:06;6.72;;;2.60;;
28838;SDS011;15971;50.772;6.100;2022-08-19T14:29:33;3.95;;;2.17;;
28838;SDS011;15971;50.772;6.100;2022-08-19T14:31:59;5.05;;;3.03;;
28838;SDS011;15971;50.772;6.100;2022-08-19T14:34:25;3.65;;;2.30;;
28838;SDS011;15971;50.772;6.100;2022-08-19T14:36:51;4.03;;;2.58;;
28838;SDS011;15971;50.772;6.100;2022-08-19T14:39:17;7.55;;;2.90;;
28838;SDS011;15971;50.772;6.100;2022-08-19T14:41:43;8.45;;;2.97;;